createdAt,value
2018-04-02T00:01:47.561Z,1.80
2018-04-02T00:04:14.574Z,2.30
2018-04-02T00:06:41.608Z,2.00
2018-04-02T00:09:08.621Z,1.77
2018-04-02T00:11:35.635Z,2.00
2018-04-02T00:14:02.638Z,2.20
2018-04-02T00:16:29.634Z,2.00
2018-04-02T00:18:56.638Z,2.30
2018-04-02T00:21:23.885Z,2.20
2018-04-02T00:23:50.884Z,2.23
2018-04-02T00:26:17.870Z,1.67
2018-04-02T00:28:45.226Z,2.00
2018-04-02T00:31:12.229Z,2.20
2018-04-02T00:33:39.380Z,2.10
2018-04-02T00:36:06.391Z,1.60
2018-04-02T00:38:33.385Z,1.57
2018-04-02T00:41:00.383Z,1.87
2018-04-02T00:43:27.582Z,2.13
2018-04-02T00:45:55.351Z,2.07
2018-04-02T00:48:22.328Z,2.17
2018-04-02T00:50:49.378Z,2.23
2018-04-02T00:53:16.595Z,1.97
2018-04-02T00:55:43.586Z,2.00
2018-04-02T00:58:10.584Z,1.70
2018-04-02T01:00:37.578Z,1.70
2018-04-02T01:03:04.796Z,2.00
2018-04-02T01:05:31.790Z,2.00
2018-04-02T01:07:58.783Z,2.30
2018-04-02T01:10:25.771Z,2.70
2018-04-02T01:12:52.974Z,2.57
2018-04-02T01:15:19.967Z,2.90
2018-04-02T01:17:46.964Z,2.70
2018-04-02T01:20:13.956Z,3.00
2018-04-02T01:22:41.161Z,2.00
2018-04-02T01:25:08.174Z,2.47
2018-04-02T01:27:35.181Z,2.40
2018-04-02T01:30:02.169Z,2.93
2018-04-02T01:32:29.969Z,2.20
2018-04-02T01:34:56.984Z,2.30
2018-04-02T01:37:24.001Z,2.60
2018-04-02T01:39:51.007Z,2.47
2018-04-02T01:42:18.163Z,2.30
2018-04-02T01:44:45.164Z,2.20
2018-04-02T01:47:13.060Z,2.30
2018-04-02T01:49:40.062Z,2.20
2018-04-02T01:52:08.194Z,2.33
2018-04-02T01:54:35.178Z,2.40
2018-04-02T01:57:02.180Z,2.80
2018-04-02T01:59:29.170Z,2.20
2018-04-02T02:01:56.196Z,2.30
2018-04-02T02:04:23.184Z,2.33
2018-04-02T02:06:50.193Z,2.10
2018-04-02T02:09:17.183Z,1.90
2018-04-02T02:11:44.981Z,2.27
2018-04-02T02:14:11.977Z,2.50
2018-04-02T02:16:38.974Z,2.37
2018-04-02T02:19:05.976Z,2.13
2018-04-02T02:21:32.984Z,2.33
2018-04-02T02:24:00.059Z,2.37
2018-04-02T02:26:27.043Z,2.00
2018-04-02T02:28:54.033Z,2.10
2018-04-02T02:31:21.034Z,2.20
2018-04-02T02:33:48.024Z,2.10
2018-04-02T02:36:15.035Z,2.30
2018-04-02T02:38:42.036Z,2.47
2018-04-02T02:41:09.049Z,2.23
2018-04-02T02:43:36.185Z,2.30
2018-04-02T02:46:03.180Z,1.90
2018-04-02T02:48:30.186Z,2.07
2018-04-02T02:50:57.180Z,1.90
2018-04-02T02:53:24.399Z,1.93
2018-04-02T02:55:51.394Z,2.20
2018-04-02T02:58:18.392Z,2.20
2018-04-02T03:00:45.399Z,2.07
2018-04-02T03:03:13.198Z,2.20
2018-04-02T03:05:40.199Z,1.97
2018-04-02T03:08:07.206Z,2.10
2018-04-02T03:10:34.201Z,2.17
2018-04-02T03:13:01.993Z,2.00
2018-04-02T03:15:28.990Z,1.90
2018-04-02T03:17:57.729Z,2.00
2018-04-02T03:20:24.716Z,1.80
2018-04-02T03:22:53.252Z,1.53
2018-04-02T03:25:20.262Z,2.00
2018-04-02T03:27:47.285Z,1.80
2018-04-02T03:30:14.283Z,2.27
2018-04-02T03:32:41.446Z,1.93
2018-04-02T03:35:08.449Z,2.17
2018-04-02T03:37:35.487Z,2.20
2018-04-02T03:40:02.481Z,1.87
2018-04-02T03:42:29.628Z,2.30
2018-04-02T03:44:56.634Z,2.43
2018-04-02T03:47:25.130Z,2.10
2018-04-02T03:49:52.130Z,2.30
2018-04-02T03:52:19.274Z,1.83
2018-04-02T03:54:46.261Z,1.70
2018-04-02T03:57:13.271Z,1.83
2018-04-02T03:59:40.287Z,2.00
2018-04-02T04:02:07.447Z,1.90
2018-04-02T04:04:34.449Z,2.33
2018-04-02T04:07:01.441Z,2.00
2018-04-02T04:09:28.443Z,1.90
2018-04-02T04:11:55.636Z,2.00
2018-04-02T04:14:22.644Z,1.97
2018-04-02T04:16:49.657Z,2.03
2018-04-02T04:19:16.653Z,2.00
2018-04-02T04:21:44.471Z,2.00
2018-04-02T04:24:11.461Z,1.50
2018-04-02T04:26:38.457Z,2.37
2018-04-02T04:29:05.471Z,1.77
2018-04-02T04:31:33.222Z,2.13
2018-04-02T04:34:00.220Z,2.00
2018-04-02T04:36:27.227Z,1.90
2018-04-02T04:38:54.988Z,1.77
2018-04-02T04:41:21.989Z,2.10
2018-04-02T04:43:48.987Z,1.93
2018-04-02T04:46:15.975Z,1.53
2018-04-02T04:48:43.004Z,2.10
2018-04-02T04:51:09.998Z,1.90
2018-04-02T04:53:37.089Z,2.00
2018-04-02T04:56:04.088Z,1.50
2018-04-02T04:58:31.859Z,2.03
2018-04-02T05:00:58.861Z,2.10
2018-04-02T05:03:25.893Z,2.03
2018-04-02T05:05:52.901Z,2.00
2018-04-02T05:08:20.668Z,2.27
2018-04-02T05:10:47.673Z,1.93
2018-04-02T05:13:14.749Z,1.90
2018-04-02T05:15:41.739Z,1.50
2018-04-02T05:18:08.746Z,2.10
2018-04-02T05:20:35.753Z,2.00
2018-04-02T05:23:02.888Z,2.17
2018-04-02T05:25:29.886Z,1.87
2018-04-02T05:27:56.869Z,2.00
2018-04-02T05:30:23.878Z,2.00
2018-04-02T05:32:51.082Z,2.23
2018-04-02T05:35:18.082Z,1.90
2018-04-02T05:37:45.062Z,2.17
2018-04-02T05:40:12.075Z,1.90
2018-04-02T05:42:39.282Z,1.80
2018-04-02T05:45:06.276Z,1.90
2018-04-02T05:47:34.783Z,1.90
2018-04-02T05:50:01.782Z,1.90
2018-04-02T05:52:28.897Z,2.17
2018-04-02T05:54:55.958Z,1.90
2018-04-02T05:57:22.948Z,1.97
2018-04-02T05:59:49.942Z,2.30
2018-04-02T06:02:17.612Z,1.60
2018-04-02T06:04:44.638Z,1.97
2018-04-02T06:07:11.642Z,2.40
2018-04-02T06:09:38.649Z,2.37
2018-04-02T06:12:05.783Z,2.30
2018-04-02T06:14:32.809Z,1.83
2018-04-02T06:17:00.597Z,1.97
2018-04-02T06:19:27.585Z,2.37
2018-04-02T06:21:54.710Z,1.87
2018-04-02T06:24:21.701Z,2.10
2018-04-02T06:26:48.697Z,2.57
2018-04-02T06:29:15.707Z,2.20
2018-04-02T06:31:43.506Z,2.00
2018-04-02T06:34:10.730Z,2.40
2018-04-02T06:36:37.749Z,2.03
2018-04-02T06:39:05.358Z,2.93
2018-04-02T06:41:32.366Z,2.53
2018-04-02T06:43:59.372Z,2.60
2018-04-02T06:46:26.368Z,2.50
2018-04-02T06:48:53.380Z,2.80
2018-04-02T06:51:20.369Z,3.00
2018-04-02T06:53:48.129Z,2.60
2018-04-02T06:56:15.119Z,3.10
2018-04-02T06:58:42.126Z,2.83
2018-04-02T07:01:09.890Z,3.27
2018-04-02T07:03:37.155Z,3.20
2018-04-02T07:06:04.165Z,3.13
2018-04-02T07:08:32.669Z,3.33
2018-04-02T07:10:59.699Z,2.80
2018-04-02T07:13:28.230Z,3.70
2018-04-02T07:15:55.254Z,3.37
2018-04-02T07:18:22.256Z,3.50
2018-04-02T07:20:49.268Z,3.57
2018-04-02T07:23:16.426Z,3.07
2018-04-02T07:25:43.420Z,3.30
2018-04-02T07:28:10.415Z,5.40
2018-04-02T07:30:37.418Z,3.77
2018-04-02T07:33:04.612Z,3.57
2018-04-02T07:35:31.679Z,3.73
2018-04-02T07:37:58.674Z,3.60
2018-04-02T07:40:25.677Z,3.30
2018-04-02T07:42:52.799Z,2.60
2018-04-02T07:45:19.827Z,5.37
2018-04-02T07:47:46.840Z,5.40
2018-04-02T07:50:15.343Z,5.27
2018-04-02T07:52:43.247Z,6.10
2018-04-02T07:55:10.269Z,4.53
2018-04-02T07:57:37.272Z,4.37
2018-04-02T08:00:04.285Z,3.47
2018-04-02T08:02:31.450Z,3.20
2018-04-02T08:04:58.447Z,3.30
2018-04-02T08:07:25.438Z,2.93
2018-04-02T08:09:52.435Z,3.80
2018-04-02T08:12:20.235Z,3.30
2018-04-02T08:14:47.237Z,3.50
2018-04-02T08:17:14.597Z,3.40
2018-04-02T08:19:41.652Z,2.83
2018-04-02T08:22:08.841Z,2.50
2018-04-02T08:24:35.857Z,2.77
2018-04-02T08:27:02.841Z,2.40
2018-04-02T08:29:29.831Z,2.40
2018-04-02T08:31:57.027Z,2.67
2018-04-02T08:34:24.037Z,2.80
2018-04-02T08:36:51.069Z,3.10
2018-04-02T08:39:18.069Z,2.67
2018-04-02T08:41:45.214Z,2.17
2018-04-02T08:44:12.214Z,2.30
2018-04-02T08:46:39.235Z,1.97
2018-04-02T08:49:06.241Z,2.17
2018-04-02T08:51:33.996Z,2.27
2018-04-02T08:54:01.004Z,1.80
2018-04-02T08:56:27.988Z,2.10
2018-04-02T08:58:55.749Z,2.30
2018-04-02T09:01:22.753Z,2.13
2018-04-02T09:03:49.753Z,2.37
2018-04-02T09:06:17.513Z,2.00
2018-04-02T09:08:45.281Z,2.30
2018-04-02T09:11:13.055Z,1.93
2018-04-02T09:13:40.131Z,1.90
2018-04-02T09:16:07.129Z,2.00
2018-04-02T09:18:34.121Z,1.50
2018-04-02T09:21:01.116Z,2.37
2018-04-02T09:23:28.927Z,2.50
2018-04-02T09:25:55.913Z,2.50
2018-04-02T09:28:22.905Z,3.20
2018-04-02T09:30:49.898Z,3.40
2018-04-02T09:33:16.905Z,2.33
2018-04-02T09:35:43.913Z,3.00
2018-04-02T09:38:10.907Z,2.63
2018-04-02T09:40:37.921Z,2.40
2018-04-02T09:43:05.903Z,2.30
2018-04-02T09:45:32.895Z,2.57
2018-04-02T09:47:59.905Z,2.50
2018-04-02T09:50:26.949Z,2.63
2018-04-02T09:52:54.116Z,3.27
2018-04-02T09:55:21.133Z,3.47
2018-04-02T09:57:48.123Z,3.03
2018-04-02T10:00:15.190Z,3.33
2018-04-02T10:02:42.290Z,3.07
2018-04-02T10:05:09.352Z,4.63
2018-04-02T10:07:36.323Z,3.27
2018-04-02T10:10:03.383Z,3.07
2018-04-02T10:12:30.502Z,2.80
2018-04-02T10:14:57.489Z,3.10
2018-04-02T10:17:24.886Z,2.90
2018-04-02T10:19:51.926Z,5.47
2018-04-02T10:22:19.096Z,4.17
2018-04-02T10:24:46.124Z,3.33
2018-04-02T10:27:14.245Z,2.73
2018-04-02T10:29:41.282Z,2.30
2018-04-02T10:32:08.380Z,3.40
2018-04-02T10:34:35.333Z,2.93
2018-04-02T10:37:02.388Z,2.83
2018-04-02T10:39:29.384Z,2.80
2018-04-02T10:41:56.505Z,2.30
2018-04-02T10:44:23.517Z,2.60
2018-04-02T10:46:50.518Z,2.10
2018-04-02T10:49:17.533Z,2.40
2018-04-02T10:51:44.686Z,2.40
2018-04-02T10:54:11.700Z,2.50
2018-04-02T10:56:38.696Z,2.30
2018-04-02T10:59:05.692Z,2.40
2018-04-02T11:01:33.477Z,2.83
2018-04-02T11:04:00.487Z,2.97
2018-04-02T11:06:27.486Z,2.47
2018-04-02T11:08:54.474Z,2.50
2018-04-02T11:11:21.490Z,3.03
2018-04-02T11:13:48.488Z,3.10
2018-04-02T11:16:15.557Z,3.13
2018-04-02T11:18:42.608Z,3.00
2018-04-02T11:21:09.641Z,3.17
2018-04-02T11:23:36.749Z,3.27
2018-04-02T11:26:03.736Z,2.43
2018-04-02T11:28:30.733Z,2.60
2018-04-02T11:30:57.737Z,3.40
2018-04-02T11:33:25.524Z,2.70
2018-04-02T11:35:52.531Z,2.60
2018-04-02T11:38:19.558Z,9.50
2018-04-02T11:40:46.564Z,6.03
2018-04-02T11:43:13.735Z,3.90
2018-04-02T11:45:40.734Z,4.13
2018-04-02T11:48:07.741Z,4.40
2018-04-02T11:50:34.773Z,2.60
2018-04-02T11:53:01.912Z,4.37
2018-04-02T11:55:28.921Z,4.27
2018-04-02T11:57:55.930Z,3.57
2018-04-02T12:00:22.946Z,3.63
2018-04-02T12:02:50.149Z,3.67
2018-04-02T12:05:17.145Z,2.93
2018-04-02T12:07:44.149Z,3.20
2018-04-02T12:10:11.166Z,3.30
2018-04-02T12:12:38.292Z,3.10
2018-04-02T12:15:05.286Z,2.97
2018-04-02T12:17:32.309Z,2.80
2018-04-02T12:19:59.299Z,3.40
2018-04-02T12:22:27.089Z,2.90
2018-04-02T12:24:54.085Z,2.47
2018-04-02T12:27:21.101Z,2.60
2018-04-02T12:29:48.107Z,2.87
2018-04-02T12:32:16.067Z,2.30
2018-04-02T12:34:43.076Z,2.83
2018-04-02T12:37:10.060Z,2.70
2018-04-02T12:39:37.857Z,3.20
2018-04-02T12:42:04.902Z,3.10
2018-04-02T12:44:31.898Z,3.17
2018-04-02T12:46:58.901Z,3.03
2018-04-02T12:49:25.908Z,3.40
2018-04-02T12:51:53.708Z,2.70
2018-04-02T12:54:20.709Z,3.37
2018-04-02T12:56:47.713Z,3.00
2018-04-02T12:59:14.714Z,3.20
2018-04-02T13:01:42.512Z,3.23
2018-04-02T13:04:09.509Z,3.07
2018-04-02T13:06:36.508Z,3.00
2018-04-02T13:09:03.517Z,3.03
2018-04-02T13:11:31.279Z,3.30
2018-04-02T13:13:58.279Z,3.10
2018-04-02T13:16:25.276Z,3.10
2018-04-02T13:18:53.041Z,3.03
2018-04-02T13:21:20.034Z,3.20
2018-04-02T13:23:47.045Z,3.17
2018-04-02T13:26:14.810Z,2.77
2018-04-02T13:28:41.823Z,2.93
2018-04-02T13:31:08.845Z,2.40
2018-04-02T13:33:35.992Z,2.50
2018-04-02T13:36:02.982Z,2.60
2018-04-02T13:38:29.964Z,2.80
2018-04-02T13:40:56.993Z,2.50
2018-04-02T13:43:24.788Z,2.30
2018-04-02T13:45:51.774Z,2.10
2018-04-02T13:48:18.786Z,2.30
2018-04-02T13:50:45.782Z,2.70
2018-04-02T13:53:12.970Z,2.60
2018-04-02T13:55:39.969Z,2.23
2018-04-02T13:58:06.962Z,1.83
2018-04-02T14:00:33.949Z,2.73
2018-04-02T14:03:00.966Z,2.33
2018-04-02T14:05:27.964Z,2.00
2018-04-02T14:07:54.961Z,2.30
2018-04-02T14:10:21.956Z,2.00
2018-04-02T14:12:49.768Z,2.33
2018-04-02T14:15:16.755Z,2.40
2018-04-02T14:17:43.772Z,1.63
2018-04-02T14:20:10.786Z,2.00
2018-04-02T14:22:38.582Z,1.80
2018-04-02T14:25:05.578Z,2.00
2018-04-02T14:27:32.581Z,2.40
2018-04-02T14:29:59.617Z,1.93
2018-04-02T14:32:27.373Z,1.87
2018-04-02T14:34:54.529Z,1.73
2018-04-02T14:37:21.522Z,1.73
2018-04-02T14:39:48.514Z,1.97
2018-04-02T14:42:15.574Z,1.57
2018-04-02T14:44:42.576Z,1.80
2018-04-02T14:47:09.579Z,1.80
2018-04-02T14:49:36.573Z,1.73
2018-04-02T14:52:04.372Z,1.83
2018-04-02T14:54:31.382Z,1.97
2018-04-02T14:56:58.359Z,2.00
2018-04-02T14:59:25.400Z,1.80
2018-04-02T15:01:52.558Z,1.67
2018-04-02T15:04:19.619Z,1.80
2018-04-02T15:06:46.684Z,1.83
2018-04-02T15:09:13.696Z,1.90
2018-04-02T15:11:40.753Z,1.73
2018-04-02T15:14:07.753Z,1.37
2018-04-02T15:16:35.528Z,1.40
2018-04-02T15:19:03.274Z,1.40
2018-04-02T15:21:30.258Z,1.87
2018-04-02T15:23:57.250Z,1.67
2018-04-02T15:26:24.250Z,1.70
2018-04-02T15:28:51.245Z,1.50
2018-04-02T15:31:18.261Z,1.50
2018-04-02T15:33:45.259Z,1.70
2018-04-02T15:36:12.247Z,1.40
2018-04-02T15:38:39.246Z,1.47
2018-04-02T15:41:06.245Z,1.87
2018-04-02T15:43:33.448Z,1.30
2018-04-02T15:46:00.405Z,1.50
2018-04-02T15:48:27.386Z,1.60
2018-04-02T15:50:54.434Z,1.50
2018-04-02T15:53:22.199Z,1.40
2018-04-02T15:55:49.202Z,1.50
2018-04-02T15:58:16.198Z,1.40
2018-04-02T16:00:43.186Z,1.23
2018-04-02T16:03:10.206Z,1.50
2018-04-02T16:05:37.212Z,1.57
2018-04-02T16:08:04.245Z,1.10
2018-04-02T16:10:31.245Z,1.40
2018-04-02T16:12:58.394Z,1.60
2018-04-02T16:15:25.383Z,1.17
2018-04-02T16:17:52.375Z,1.50
2018-04-02T16:20:19.372Z,1.67
2018-04-02T16:22:46.560Z,1.30
2018-04-02T16:25:13.638Z,1.43
2018-04-02T16:27:40.692Z,1.10
2018-04-02T16:30:07.677Z,1.30
2018-04-02T16:32:34.761Z,1.27
2018-04-02T16:35:01.766Z,1.43
2018-04-02T16:37:28.764Z,1.10
2018-04-02T16:39:55.770Z,1.50
2018-04-02T16:42:23.563Z,1.10
2018-04-02T16:44:50.591Z,1.77
2018-04-02T16:47:18.506Z,1.40
2018-04-02T16:49:45.625Z,1.20
2018-04-02T16:52:12.769Z,1.17
2018-04-02T16:54:39.769Z,1.10
2018-04-02T16:57:06.803Z,1.13
2018-04-02T16:59:33.800Z,1.20
2018-04-02T17:02:00.977Z,1.33
2018-04-02T17:04:27.971Z,1.20
2018-04-02T17:06:54.972Z,1.60
2018-04-02T17:09:22.013Z,1.33
2018-04-02T17:11:49.162Z,1.67
2018-04-02T17:14:16.158Z,1.37
2018-04-02T17:16:44.658Z,1.20
2018-04-02T17:19:11.666Z,1.40
2018-04-02T17:21:38.791Z,1.47
2018-04-02T17:24:05.817Z,1.40
2018-04-02T17:26:32.833Z,1.50
2018-04-02T17:29:01.336Z,1.40
2018-04-02T17:31:28.354Z,1.43
2018-04-02T17:33:55.357Z,1.57
2018-04-02T17:36:22.373Z,1.60
2018-04-02T17:38:50.159Z,1.60
2018-04-02T17:41:17.163Z,1.53
2018-04-02T17:43:44.171Z,1.87
2018-04-02T17:46:12.478Z,1.40
2018-04-02T17:48:39.500Z,1.60
2018-04-02T17:51:07.248Z,1.53
2018-04-02T17:53:34.413Z,1.63
2018-04-02T17:56:01.589Z,1.60
2018-04-02T17:58:28.538Z,1.50
2018-04-02T18:00:55.530Z,1.67
2018-04-02T18:03:22.733Z,2.30
2018-04-02T18:05:49.733Z,2.60
2018-04-02T18:08:16.735Z,3.30
2018-04-02T18:10:43.741Z,3.10
2018-04-02T18:13:11.940Z,2.67
2018-04-02T18:15:39.488Z,2.53
2018-04-02T18:18:06.496Z,2.10
2018-04-02T18:20:34.325Z,2.30
2018-04-02T18:23:01.584Z,2.33
2018-04-02T18:25:29.624Z,2.30
2018-04-02T18:27:56.657Z,2.33
2018-04-02T18:30:23.711Z,2.53
2018-04-02T18:32:50.773Z,2.33
2018-04-02T18:35:17.774Z,2.07
2018-04-02T18:37:44.774Z,2.40
2018-04-02T18:40:13.992Z,2.30
2018-04-02T18:42:41.207Z,2.40
2018-04-02T18:45:08.226Z,2.17
2018-04-02T18:47:35.281Z,2.37
2018-04-02T18:50:02.300Z,2.27
2018-04-02T18:52:29.383Z,2.47
2018-04-02T18:54:56.623Z,2.37
2018-04-02T18:57:23.715Z,2.30
2018-04-02T18:59:50.940Z,1.93
2018-04-02T19:02:17.984Z,2.07
2018-04-02T19:04:45.213Z,2.47
2018-04-02T19:07:12.471Z,2.30
2018-04-02T19:09:39.645Z,2.00
2018-04-02T19:12:06.988Z,2.00
2018-04-02T19:14:34.226Z,3.60
2018-04-02T19:17:01.280Z,2.73
2018-04-02T19:19:28.630Z,3.20
2018-04-02T19:21:56.707Z,2.60
2018-04-02T19:24:23.789Z,2.40
2018-04-02T19:26:50.977Z,2.77
2018-04-02T19:29:18.304Z,3.00
2018-04-02T19:31:46.077Z,2.77
2018-04-02T19:34:13.605Z,2.83
2018-04-02T19:36:41.156Z,2.80
2018-04-02T19:39:08.252Z,2.40
2018-04-02T19:41:35.385Z,3.03
2018-04-02T19:44:02.471Z,3.40
2018-04-02T19:46:29.631Z,3.20
2018-04-02T19:48:57.653Z,3.47
2018-04-02T19:51:25.540Z,3.20
2018-04-02T19:53:52.598Z,3.37
2018-04-02T19:56:19.862Z,4.03
2018-04-02T19:58:47.660Z,3.40
2018-04-02T20:01:14.786Z,3.97
2018-04-02T20:03:42.777Z,3.60
2018-04-02T20:06:10.523Z,4.07
2018-04-02T20:08:37.794Z,3.93
2018-04-02T20:11:04.876Z,4.10
2018-04-02T20:13:32.215Z,3.93
2018-04-02T20:16:00.912Z,3.90
2018-04-02T20:18:28.319Z,3.77
2018-04-02T20:20:55.500Z,3.70
2018-04-02T20:23:23.253Z,3.90
2018-04-02T20:25:51.080Z,3.90
2018-04-02T20:28:18.080Z,3.70
2018-04-02T20:30:45.077Z,4.00
2018-04-02T20:33:12.884Z,4.07
2018-04-02T20:35:39.888Z,3.50
2018-04-02T20:38:06.905Z,3.87
2018-04-02T20:40:33.990Z,3.63
2018-04-02T20:43:01.114Z,3.97
2018-04-02T20:45:28.141Z,3.90
2018-04-02T20:47:55.354Z,3.80
2018-04-02T20:50:22.746Z,4.23
2018-04-02T20:52:49.909Z,4.27
2018-04-02T20:55:17.013Z,3.40
2018-04-02T20:57:44.015Z,4.10
2018-04-02T21:00:11.002Z,3.90
2018-04-02T21:02:38.070Z,3.77
2018-04-02T21:05:05.138Z,3.80
2018-04-02T21:07:32.132Z,3.77
2018-04-02T21:09:59.268Z,3.60
2018-04-02T21:12:26.458Z,3.27
2018-04-02T21:14:53.462Z,2.90
2018-04-02T21:17:21.077Z,3.00
2018-04-02T21:19:48.113Z,3.33
2018-04-02T21:22:15.272Z,3.40
2018-04-02T21:24:42.278Z,2.60
2018-04-02T21:27:09.263Z,3.90
2018-04-02T21:29:36.249Z,3.70
2018-04-02T21:32:03.514Z,2.90
2018-04-02T21:34:31.275Z,3.27
2018-04-02T21:36:58.987Z,3.53
2018-04-02T21:39:25.976Z,3.00
2018-04-02T21:41:53.554Z,2.80
2018-04-02T21:44:21.324Z,3.20
2018-04-02T21:46:48.355Z,3.00
2018-04-02T21:49:15.422Z,3.20
2018-04-02T21:51:42.654Z,3.37
2018-04-02T21:54:11.168Z,3.10
2018-04-02T21:56:38.195Z,3.33
2018-04-02T21:59:05.216Z,3.27
2018-04-02T22:01:32.221Z,2.43
2018-04-02T22:03:59.261Z,3.17
2018-04-02T22:06:26.342Z,3.00
2018-04-02T22:08:53.341Z,3.40
2018-04-02T22:11:21.154Z,2.90
2018-04-02T22:13:48.148Z,3.20
2018-04-02T22:16:15.383Z,3.17
2018-04-02T22:18:42.405Z,2.47
2018-04-02T22:21:09.398Z,3.17
2018-04-02T22:23:37.814Z,2.90
2018-04-02T22:26:05.774Z,3.13
2018-04-02T22:28:32.816Z,3.17
2018-04-02T22:30:59.830Z,3.00
2018-04-02T22:33:27.639Z,2.97
2018-04-02T22:35:54.687Z,2.27
2018-04-02T22:38:21.697Z,2.67
2018-04-02T22:40:48.697Z,3.00
2018-04-02T22:43:15.837Z,2.70
2018-04-02T22:45:42.838Z,2.63
2018-04-02T22:48:09.855Z,2.57
2018-04-02T22:50:36.846Z,2.63
2018-04-02T22:53:04.030Z,2.37
2018-04-02T22:55:31.030Z,2.80
2018-04-02T22:57:58.049Z,2.50
2018-04-02T23:00:25.162Z,2.43
2018-04-02T23:02:52.216Z,2.33
2018-04-02T23:05:19.217Z,2.90
2018-04-02T23:07:46.214Z,2.40
2018-04-02T23:10:13.210Z,2.57
2018-04-02T23:12:41.007Z,2.90
2018-04-02T23:15:08.010Z,1.90
2018-04-02T23:17:35.024Z,2.57
2018-04-02T23:20:02.035Z,2.27
2018-04-02T23:22:29.220Z,2.60
2018-04-02T23:24:56.231Z,2.97
2018-04-02T23:27:23.246Z,2.30
2018-04-02T23:29:50.252Z,2.63
2018-04-02T23:32:17.405Z,2.10
2018-04-02T23:34:44.420Z,2.23
2018-04-02T23:37:11.405Z,2.43
2018-04-02T23:39:38.404Z,2.73
2018-04-02T23:42:06.198Z,2.27
2018-04-02T23:44:33.186Z,2.23
2018-04-02T23:47:00.196Z,2.40
2018-04-02T23:49:27.193Z,2.40
2018-04-02T23:51:55.005Z,2.40
2018-04-02T23:54:21.983Z,2.10
2018-04-02T23:56:48.993Z,2.27
2018-04-02T23:59:15.978Z,2.27
